Time;durP1;ratioP1;P1;durP2;ratioP2;P2;SDS_P1;SDS_P2;PMS_P1;PMS_P2;Temp;Humidity;BMP_temperature;BMP_pressure;BME280_temperature;BME280_humidity;BME280_pressure;Samples;Min_cycle;Max_cycle;Signal;HPM_P1;HPM_P2
2022/09/25 00:02:02;;;;;;;1.00;0.90;;;20.40;56.50;;;;;;6219402;28;20061;-80
2022/09/25 00:05:03;;;;;;;1.35;1.00;;;20.40;56.50;;;;;;6219219;28;20042;-79
2022/09/25 00:08:05;;;;;;;1.15;1.05;;;20.40;56.50;;;;;;6219270;28;20033;-79
2022/09/25 00:11:09;;;;;;;1.00;0.90;;;20.50;56.60;;;;;;6213141;28;20087;-79
2022/09/25 00:14:10;;;;;;;1.42;1.17;;;20.40;56.60;;;;;;6216542;28;20140;-76
2022/09/25 00:17:10;;;;;;;1.10;0.85;;;20.40;56.60;;;;;;6216887;28;20038;-80
2022/09/25 00:20:13;;;;;;;1.27;1.10;;;20.40;56.60;;;;;;6219108;28;20090;-80
2022/09/25 00:23:14;;;;;;;1.38;1.10;;;20.40;56.50;;;;;;6217787;28;20030;-79
2022/09/25 00:26:15;;;;;;;1.45;1.10;;;20.50;56.70;;;;;;6125358;29;20062;-80
2022/09/25 00:29:19;;;;;;;1.25;1.02;;;20.40;56.60;;;;;;6141588;29;20043;-79
2022/09/25 00:32:19;;;;;;;1.95;1.40;;;20.40;56.60;;;;;;6143149;29;20063;-80
2022/09/25 00:35:20;;;;;;;1.42;1.20;;;20.40;56.50;;;;;;6143083;29;20045;-80
2022/09/25 00:38:21;;;;;;;1.35;1.08;;;20.40;56.60;;;;;;6143066;29;20034;-79
2022/09/25 00:41:24;;;;;;;1.05;0.90;;;20.40;56.50;;;;;;6142877;29;20189;-79
2022/09/25 00:44:57;;;;;;;1.85;1.10;;;20.40;56.50;;;;;;6143715;28;20055;-79
2022/09/25 00:48:01;;;;;;;1.00;0.90;;;20.40;56.70;;;;;;6144237;28;20528;-79
2022/09/25 00:51:03;;;;;;;1.45;1.08;;;20.40;56.50;;;;;;6142514;29;20081;-78
2022/09/25 00:54:06;;;;;;;1.10;1.00;;;20.40;56.60;;;;;;6142643;29;20031;-79
2022/09/25 00:57:12;;;;;;;1.33;1.05;;;20.40;56.50;;;;;;6182925;28;20611;-80
2022/09/25 01:00:14;;;;;;;1.17;0.82;;;20.40;56.60;;;;;;6218244;28;20025;-78
2022/09/25 01:03:16;;;;;;;1.38;1.00;;;20.40;56.50;;;;;;6218475;28;20049;-80
2022/09/25 01:06:17;;;;;;;1.10;1.00;;;20.40;56.80;;;;;;6216432;28;20404;-79
2022/09/25 01:09:18;;;;;;;1.52;0.95;;;20.40;56.60;;;;;;6218077;28;20037;-79
2022/09/25 01:12:19;;;;;;;1.10;1.00;;;20.40;56.70;;;;;;6210262;28;20025;-79
2022/09/25 01:15:40;;;;;;;1.67;0.98;;;20.40;56.70;;;;;;6218384;28;20021;-78
2022/09/25 01:19:02;;;;;;;1.23;1.02;;;20.40;56.60;;;;;;6217418;28;20030;-80
2022/09/25 01:22:35;;;;;;;0.88;0.80;;;20.40;56.60;;;;;;6217904;28;20238;-79
2022/09/25 01:26:14;;;;;;;1.00;0.90;;;20.40;56.60;;;;;;6218312;28;20041;-80
2022/09/25 01:29:36;;;;;;;0.90;0.82;;;20.40;56.90;;;;;;6194446;28;20041;-80
2022/09/25 01:33:12;;;;;;;0.93;0.70;;;20.40;56.60;;;;;;6218236;28;20041;-79
2022/09/25 01:36:19;;;;;;;1.13;0.88;;;20.50;56.70;;;;;;6220270;28;20018;-79
2022/09/25 01:39:25;;;;;;;1.38;1.08;;;20.50;56.80;;;;;;6220704;28;20489;-80
2022/09/25 01:42:32;;;;;;;1.10;0.90;;;20.40;56.60;;;;;;6222354;28;20512;-79
2022/09/25 01:45:49;;;;;;;1.15;0.90;;;20.40;56.80;;;;;;6230279;28;20425;-80
2022/09/25 01:49:07;;;;;;;1.92;1.20;;;20.40;56.70;;;;;;6224531;28;20530;-80
2022/09/25 01:52:14;;;;;;;0.85;0.80;;;20.40;56.60;;;;;;6222020;28;20312;-79
2022/09/25 01:55:23;;;;;;;1.48;1.10;;;20.40;56.60;;;;;;6220568;28;20044;-80
2022/09/25 01:58:32;;;;;;;1.20;1.00;;;20.40;56.80;;;;;;6215031;28;20109;-78
2022/09/25 02:01:39;;;;;;;1.30;1.05;;;20.40;57.10;;;;;;6222020;28;20088;-79
2022/09/25 02:04:56;;;;;;;1.67;0.90;;;20.40;56.70;;;;;;6222113;28;20033;-80
2022/09/25 02:08:04;;;;;;;1.50;1.17;;;20.50;56.80;;;;;;6158364;28;20050;-80
2022/09/25 02:11:06;;;;;;;1.23;0.75;;;20.40;56.70;;;;;;6170752;28;20548;-77
2022/09/25 02:14:14;;;;;;;1.45;1.10;;;20.40;56.80;;;;;;6145664;28;20051;-80
2022/09/25 02:21:13;;;;;;;1.33;0.98;;;20.40;56.70;;;;;;6146367;29;20035;-79
2022/09/25 02:24:20;;;;;;;1.00;0.88;;;20.40;56.90;;;;;;6143055;28;20038;-79
2022/09/25 02:27:23;;;;;;;0.80;0.80;;;20.40;56.70;;;;;;6133987;28;20077;-79
2022/09/25 02:30:24;;;;;;;1.25;1.10;;;20.40;56.70;;;;;;6169571;28;20031;-79
2022/09/25 02:33:25;;;;;;;0.82;0.80;;;20.40;56.70;;;;;;6154903;28;20464;-78
2022/09/25 02:36:25;;;;;;;1.15;0.93;;;20.40;56.70;;;;;;6145708;29;20085;-80
2022/09/25 02:39:29;;;;;;;1.38;0.95;;;20.40;56.70;;;;;;6190038;28;20437;-81
2022/09/25 02:42:58;;;;;;;1.00;0.70;;;20.40;56.70;;;;;;6202375;28;20501;-80
2022/09/25 02:46:15;;;;;;;1.00;0.90;;;20.40;56.70;;;;;;6219762;28;20037;-80
2022/09/25 02:49:33;;;;;;;1.10;0.95;;;20.40;57.00;;;;;;6219898;28;20026;-80
2022/09/25 02:52:40;;;;;;;1.20;0.95;;;20.40;56.80;;;;;;6220822;28;20092;-80
2022/09/25 02:55:43;;;;;;;1.40;1.10;;;20.40;56.80;;;;;;6220127;28;20034;-79
2022/09/25 02:58:54;;;;;;;1.23;0.75;;;20.50;56.80;;;;;;6220472;28;20400;-80
2022/09/25 03:01:57;;;;;;;0.98;0.88;;;20.40;56.70;;;;;;6221060;28;20030;-78
2022/09/25 03:04:59;;;;;;;0.80;0.80;;;20.40;56.70;;;;;;6220053;28;20057;-80
2022/09/25 03:11:20;;;;;;;0.90;0.80;;;20.40;56.70;;;;;;6220591;28;20030;-77
2022/09/25 03:14:21;;;;;;;1.40;0.88;;;20.40;56.70;;;;;;6220629;28;20022;-79
2022/09/25 03:17:22;;;;;;;1.00;0.90;;;20.40;56.70;;;;;;6220337;28;20034;-79
2022/09/25 03:20:22;;;;;;;1.30;0.95;;;20.40;56.80;;;;;;6219014;28;20146;-79
2022/09/25 03:23:23;;;;;;;1.00;0.77;;;20.40;56.90;;;;;;6218319;28;20032;-80
2022/09/25 03:26:26;;;;;;;0.98;0.88;;;20.40;56.80;;;;;;6220287;28;20508;-80
2022/09/25 03:29:29;;;;;;;0.70;0.68;;;20.40;56.80;;;;;;6219422;28;20552;-79
2022/09/25 03:32:29;;;;;;;0.85;0.85;;;20.40;56.80;;;;;;6143705;29;20097;-80
2022/09/25 03:35:30;;;;;;;0.70;0.70;;;20.40;56.90;;;;;;6143645;29;20066;-78
2022/09/25 03:38:31;;;;;;;1.00;0.88;;;20.40;56.80;;;;;;6144204;29;20039;-78
2022/09/25 03:41:34;;;;;;;1.05;0.90;;;20.40;56.80;;;;;;6144459;29;20578;-80
2022/09/25 03:44:35;;;;;;;0.98;0.82;;;20.40;56.70;;;;;;6143931;29;20364;-80
2022/09/25 03:47:35;;;;;;;0.80;0.70;;;20.40;56.70;;;;;;6128473;29;20094;-78
2022/09/25 03:50:38;;;;;;;0.82;0.70;;;20.40;56.70;;;;;;6127800;29;20506;-77
2022/09/25 03:53:39;;;;;;;1.10;0.90;;;20.40;56.80;;;;;;6127692;29;20031;-77
2022/09/25 03:56:40;;;;;;;1.13;0.90;;;20.40;56.70;;;;;;6141832;28;20035;-80
2022/09/25 03:59:41;;;;;;;0.80;0.77;;;20.40;56.70;;;;;;6127520;29;20050;-79
2022/09/25 04:02:41;;;;;;;0.85;0.80;;;20.40;56.80;;;;;;6169673;28;20026;-80
2022/09/25 04:05:42;;;;;;;0.77;0.70;;;20.40;56.80;;;;;;6217866;28;20030;-77
2022/09/25 04:08:43;;;;;;;0.85;0.80;;;20.40;56.90;;;;;;6218954;28;20033;-77
2022/09/25 04:11:44;;;;;;;1.08;0.80;;;20.40;56.80;;;;;;6217438;28;20107;-80
2022/09/25 04:14:45;;;;;;;1.77;0.80;;;20.40;56.70;;;;;;6219033;28;20034;-79
2022/09/25 04:17:46;;;;;;;0.88;0.68;;;20.40;56.90;;;;;;6218735;28;20105;-79
2022/09/25 04:20:46;;;;;;;0.95;0.60;;;20.40;56.80;;;;;;6218248;28;20033;-79
2022/09/25 04:27:07;;;;;;;0.65;0.63;;;20.40;56.80;;;;;;6218750;28;20117;-78
2022/09/25 04:30:09;;;;;;;0.73;0.63;;;20.40;56.80;;;;;;6214428;28;20041;-78
2022/09/25 04:36:29;;;;;;;0.70;0.60;;;20.40;56.70;;;;;;6218337;28;20034;-80
2022/09/25 04:39:29;;;;;;;0.77;0.73;;;20.40;56.70;;;;;;6218707;28;20543;-80
2022/09/25 04:42:30;;;;;;;0.75;0.70;;;20.40;56.80;;;;;;6216200;28;20262;-79
2022/09/25 04:45:33;;;;;;;1.08;0.80;;;20.40;56.80;;;;;;6218420;28;20473;-80
2022/09/25 04:48:34;;;;;;;0.80;0.70;;;20.40;56.70;;;;;;6213977;28;20121;-80
2022/09/25 04:51:35;;;;;;;0.88;0.75;;;20.40;56.80;;;;;;6217254;28;20109;-79
2022/09/25 04:54:35;;;;;;;0.73;0.70;;;20.40;56.80;;;;;;6218582;28;20056;-78
2022/09/25 04:57:36;;;;;;;1.00;0.70;;;20.40;57.00;;;;;;6218981;28;20354;-78
2022/09/25 05:00:46;;;;;;;0.70;0.70;;;20.40;56.80;;;;;;6216127;28;20034;-77
2022/09/25 05:03:52;;;;;;;0.93;0.82;;;20.40;56.80;;;;;;6194058;28;20039;-80
2022/09/25 05:06:53;;;;;;;1.38;0.98;;;20.40;56.90;;;;;;6213684;28;20033;-80
2022/09/25 05:09:54;;;;;;;1.02;0.77;;;20.40;56.80;;;;;;6218032;28;20520;-77
2022/09/25 05:12:56;;;;;;;1.75;1.02;;;20.40;56.90;;;;;;6217876;28;20026;-75
2022/09/25 05:15:56;;;;;;;2.97;0.80;;;20.40;56.90;;;;;;6217606;28;20026;-77
2022/09/25 05:18:58;;;;;;;0.98;0.73;;;20.40;56.90;;;;;;6218701;28;20116;-79
2022/09/25 05:21:58;;;;;;;0.88;0.75;;;20.40;56.90;;;;;;6216835;28;20021;-79
2022/09/25 05:24:59;;;;;;;0.70;0.60;;;20.40;56.90;;;;;;6217962;28;20045;-79
2022/09/25 05:28:01;;;;;;;0.85;0.73;;;20.40;56.90;;;;;;6218000;28;20088;-80
2022/09/25 05:31:03;;;;;;;1.38;0.80;;;20.40;57.00;;;;;;6212625;28;20026;-79
2022/09/25 05:34:03;;;;;;;1.20;0.80;;;20.40;56.90;;;;;;6217735;28;20527;-79
2022/09/25 05:37:04;;;;;;;1.50;0.95;;;20.40;56.80;;;;;;6217975;28;20026;-79
2022/09/25 05:40:05;;;;;;;1.10;0.85;;;20.40;56.80;;;;;;6217909;28;20022;-78
2022/09/25 05:43:06;;;;;;;0.70;0.70;;;20.40;56.80;;;;;;6215067;28;20064;-80
2022/09/25 05:46:07;;;;;;;0.93;0.70;;;20.40;56.80;;;;;;6215148;28;20504;-80
2022/09/25 05:49:08;;;;;;;0.68;0.60;;;20.40;56.80;;;;;;6217862;28;20465;-80
2022/09/25 05:52:08;;;;;;;0.77;0.65;;;20.40;56.90;;;;;;6217513;28;20037;-80
2022/09/25 05:55:09;;;;;;;0.50;0.50;;;20.40;57.10;;;;;;6217677;28;20516;-75
2022/09/25 05:58:10;;;;;;;0.95;0.77;;;20.40;56.80;;;;;;6218047;28;20026;-80
2022/09/25 06:01:11;;;;;;;1.35;0.68;;;20.40;56.80;;;;;;6217799;28;20034;-79
2022/09/25 06:04:11;;;;;;;0.90;0.80;;;20.40;56.90;;;;;;6215617;28;20042;-79
2022/09/25 06:07:12;;;;;;;0.88;0.70;;;20.40;56.80;;;;;;6215486;28;20096;-80
2022/09/25 06:10:12;;;;;;;0.85;0.68;;;20.40;56.90;;;;;;6216951;28;20022;-78
2022/09/25 06:13:13;;;;;;;1.00;0.50;;;20.40;56.80;;;;;;6217528;28;20543;-79
2022/09/25 06:16:18;;;;;;;0.90;0.65;;;20.40;56.80;;;;;;6215170;28;20014;-79
2022/09/25 06:19:19;;;;;;;0.80;0.80;;;20.40;56.90;;;;;;6217946;28;20493;-77
2022/09/25 06:22:20;;;;;;;0.80;0.70;;;20.40;56.90;;;;;;6221484;28;20030;-79
2022/09/25 06:25:29;;;;;;;0.73;0.68;;;20.40;56.80;;;;;;6221930;28;20543;-79
2022/09/25 06:28:30;;;;;;;0.80;0.73;;;20.40;57.10;;;;;;6221341;28;20562;-81
2022/09/25 06:31:30;;;;;;;1.15;0.80;;;20.40;56.90;;;;;;6219473;28;20033;-79
2022/09/25 06:34:31;;;;;;;0.70;0.60;;;20.40;56.90;;;;;;6221776;28;20098;-79
2022/09/25 06:37:32;;;;;;;1.08;0.80;;;20.40;56.90;;;;;;6221423;28;20017;-79
2022/09/25 06:40:33;;;;;;;0.70;0.60;;;20.40;56.80;;;;;;6221907;28;20029;-79
2022/09/25 06:43:33;;;;;;;0.80;0.77;;;20.40;57.00;;;;;;6219425;28;20058;-79
2022/09/25 06:46:35;;;;;;;1.13;0.82;;;20.40;56.90;;;;;;6221245;28;20030;-80
2022/09/25 06:49:35;;;;;;;0.93;0.70;;;20.40;56.90;;;;;;6220781;28;20500;-78
2022/09/25 06:52:43;;;;;;;0.75;0.63;;;20.40;56.90;;;;;;6219437;28;20034;-80
2022/09/25 06:55:44;;;;;;;1.05;0.70;;;20.40;56.80;;;;;;6215352;28;20022;-77
2022/09/25 06:58:45;;;;;;;0.75;0.70;;;20.40;56.80;;;;;;6221016;28;20481;-76
2022/09/25 07:01:45;;;;;;;0.93;0.70;;;20.40;56.90;;;;;;6219188;28;20060;-78
2022/09/25 07:04:50;;;;;;;0.60;0.60;;;20.40;57.00;;;;;;6219063;28;20041;-80
2022/09/25 07:07:50;;;;;;;1.45;0.90;;;20.40;56.80;;;;;;6221180;28;20354;-79
2022/09/25 07:10:53;;;;;;;1.45;0.90;;;20.40;56.70;;;;;;6221193;28;20026;-79
2022/09/25 07:13:54;;;;;;;1.27;0.73;;;20.40;56.70;;;;;;6220246;28;20030;-79
2022/09/25 07:16:54;;;;;;;0.50;0.45;;;20.40;56.80;;;;;;6220367;28;20068;-80
2022/09/25 07:19:55;;;;;;;0.70;0.70;;;20.40;56.90;;;;;;6220694;28;20080;-79
2022/09/25 07:23:02;;;;;;;0.75;0.75;;;20.40;56.80;;;;;;6219431;28;20030;-79
2022/09/25 07:26:11;;;;;;;0.73;0.65;;;20.40;56.80;;;;;;6219220;28;20042;-79
2022/09/25 07:29:12;;;;;;;1.45;0.75;;;20.40;56.90;;;;;;6220098;28;20311;-79
2022/09/25 07:32:12;;;;;;;0.90;0.70;;;20.40;56.80;;;;;;6219389;28;20109;-78
2022/09/25 07:35:13;;;;;;;1.00;0.80;;;20.40;56.90;;;;;;6220295;28;20028;-79
2022/09/25 07:38:14;;;;;;;0.82;0.80;;;20.50;57.10;;;;;;6220764;28;20022;-78
2022/09/25 07:41:15;;;;;;;1.20;0.70;;;20.40;56.80;;;;;;6220618;28;20057;-77
2022/09/25 07:44:15;;;;;;;1.05;0.80;;;20.40;56.80;;;;;;6218362;28;20038;-78
2022/09/25 07:47:18;;;;;;;1.00;0.73;;;20.40;56.80;;;;;;6218336;28;20038;-79
2022/09/25 07:50:18;;;;;;;0.85;0.70;;;20.40;56.90;;;;;;6144429;29;20039;-79
2022/09/25 07:53:19;;;;;;;0.93;0.82;;;20.40;56.90;;;;;;6128585;29;20036;-78
2022/09/25 07:56:20;;;;;;;1.10;0.90;;;20.50;56.80;;;;;;6152327;28;20081;-80
2022/09/25 07:59:20;;;;;;;0.70;0.70;;;20.40;56.80;;;;;;6150506;28;20050;-78
2022/09/25 08:02:21;;;;;;;1.45;1.00;;;20.40;56.80;;;;;;6143588;29;20034;-78
2022/09/25 08:05:21;;;;;;;0.77;0.68;;;20.40;56.80;;;;;;6167528;28;20158;-80
2022/09/25 08:08:22;;;;;;;1.15;0.80;;;20.40;56.70;;;;;;6160314;28;20644;-79
2022/09/25 08:11:23;;;;;;;0.95;0.70;;;20.40;56.80;;;;;;6141296;29;20038;-80
2022/09/25 08:14:24;;;;;;;1.25;1.00;;;20.40;56.80;;;;;;6158109;28;20474;-79
2022/09/25 08:17:30;;;;;;;1.30;0.90;;;20.40;56.90;;;;;;6153324;28;20055;-79
2022/09/25 08:20:30;;;;;;;1.05;0.80;;;20.40;56.80;;;;;;6181427;28;20092;-79
2022/09/25 08:23:31;;;;;;;0.75;0.75;;;20.40;56.80;;;;;;6216932;28;20994;-77
2022/09/25 08:26:31;;;;;;;1.15;0.75;;;20.40;57.00;;;;;;6214981;28;20029;-79
2022/09/25 08:29:32;;;;;;;0.52;0.52;;;20.40;56.80;;;;;;6217457;28;20388;-80
2022/09/25 08:32:34;;;;;;;1.25;0.73;;;20.40;56.80;;;;;;6217145;28;20026;-79
2022/09/25 08:35:34;;;;;;;1.50;0.85;;;20.50;56.90;;;;;;6216562;28;20477;-77
2022/09/25 08:38:35;;;;;;;1.08;0.90;;;20.40;56.90;;;;;;6217119;28;20331;-79
2022/09/25 08:41:51;;;;;;;1.00;0.90;;;20.40;56.80;;;;;;6218424;28;20524;-79
2022/09/25 08:49:00;;;;;;;0.73;0.70;;;20.40;56.80;;;;;;6215807;28;20037;-79
2022/09/25 08:51:52;;;;;;;0.80;0.70;;;20.40;56.80;;;;;;6218774;28;20033;-78
2022/09/25 08:54:53;;;;;;;1.02;0.70;;;20.40;56.80;;;;;;6217641;28;20080;-79
2022/09/25 08:57:54;;;;;;;0.95;0.70;;;20.40;57.50;;;;;;6218387;28;20018;-80
2022/09/25 09:01:02;;;;;;;0.93;0.75;;;20.40;56.90;;;;;;6218519;28;20033;-79
2022/09/25 09:04:26;;;;;;;0.90;0.80;;;20.40;56.90;;;;;;6215983;28;20014;-79
2022/09/25 09:07:41;;;;;;;1.10;0.88;;;20.40;57.00;;;;;;6207792;28;20158;-79
2022/09/25 09:10:50;;;;;;;1.83;1.20;;;20.40;56.80;;;;;;6218159;28;20029;-78
2022/09/25 09:14:02;;;;;;;1.52;1.00;;;20.40;56.80;;;;;;6217633;28;20509;-77
2022/09/25 09:17:11;;;;;;;0.98;0.85;;;20.40;56.80;;;;;;6218486;28;20116;-79
2022/09/25 09:20:18;;;;;;;1.23;0.70;;;20.40;56.90;;;;;;6218526;28;20105;-79
2022/09/25 09:23:22;;;;;;;1.90;0.90;;;20.40;56.90;;;;;;6217811;28;20049;-80
2022/09/25 09:26:39;;;;;;;1.17;0.80;;;20.40;56.80;;;;;;6215064;28;20543;-79
2022/09/25 09:30:01;;;;;;;1.20;0.95;;;20.40;56.80;;;;;;6211273;28;20052;-78
2022/09/25 09:33:26;;;;;;;1.00;0.80;;;20.40;57.00;;;;;;6196517;28;20404;-77
2022/09/25 09:36:33;;;;;;;2.45;0.93;;;20.40;57.10;;;;;;6214926;28;20088;-79
2022/09/25 09:40:00;;;;;;;0.75;0.75;;;20.40;56.90;;;;;;6215032;28;20413;-77
2022/09/25 09:43:10;;;;;;;4.00;0.70;;;20.40;57.00;;;;;;6215833;28;20050;-78
2022/09/25 09:46:24;;;;;;;1.63;0.80;;;20.40;56.90;;;;;;6215662;28;20321;-78
2022/09/25 09:49:50;;;;;;;0.82;0.80;;;20.40;57.00;;;;;;6215663;28;20040;-77
2022/09/25 09:53:00;;;;;;;1.23;0.80;;;20.40;57.10;;;;;;6214144;28;20083;-79
2022/09/25 09:56:08;;;;;;;3.45;0.75;;;20.40;56.90;;;;;;6220481;28;20105;-76
2022/09/25 09:59:40;;;;;;;1.30;1.00;;;20.40;57.10;;;;;;6220176;28;20072;-77
2022/09/25 10:02:55;;;;;;;1.27;0.80;;;20.40;57.00;;;;;;6172952;28;20084;-79
2022/09/25 10:06:02;;;;;;;1.27;0.70;;;20.40;57.20;;;;;;6220548;28;20380;-77
2022/09/25 10:09:03;;;;;;;1.10;0.85;;;20.40;57.10;;;;;;6217124;28;20026;-77
2022/09/25 10:12:18;;;;;;;1.20;0.88;;;20.40;57.00;;;;;;6218580;28;20072;-78
2022/09/25 10:15:28;;;;;;;1.20;0.80;;;20.40;57.20;;;;;;6202234;28;20034;-79
2022/09/25 10:18:36;;;;;;;0.73;0.65;;;20.40;57.20;;;;;;6219381;28;20029;-77
2022/09/25 10:21:42;;;;;;;0.65;0.65;;;20.40;57.30;;;;;;6215525;28;20420;-78
2022/09/25 10:25:00;;;;;;;2.20;0.73;;;20.40;57.20;;;;;;6227199;28;20026;-77
2022/09/25 10:28:25;;;;;;;1.33;1.00;;;20.40;57.00;;;;;;6196677;28;20077;-79
2022/09/25 10:31:35;;;;;;;0.87;0.70;;;20.40;57.00;;;;;;6220414;28;20507;-79
2022/09/25 10:34:38;;;;;;;0.80;0.70;;;20.40;57.00;;;;;;6220312;28;20356;-78
2022/09/25 10:37:39;;;;;;;1.67;0.80;;;20.40;57.00;;;;;;6217684;28;20406;-79
2022/09/25 10:40:41;;;;;;;0.60;0.60;;;20.40;57.00;;;;;;6220256;28;20184;-77
2022/09/25 10:43:59;;;;;;;0.70;0.70;;;20.40;57.00;;;;;;6219464;28;20428;-78
2022/09/25 10:50:37;;;;;;;2.28;1.10;;;20.40;57.20;;;;;;6219819;28;20037;-79
2022/09/25 10:53:38;;;;;;;4.15;1.60;;;20.40;57.10;;;;;;6217877;28;20068;-79
2022/09/25 10:56:39;;;;;;;3.85;1.70;;;20.50;57.10;;;;;;6218898;28;20043;-79
2022/09/25 10:59:49;;;;;;;3.15;1.70;;;20.40;57.30;;;;;;6219114;28;20026;-78
2022/09/25 11:02:57;;;;;;;5.35;2.40;;;20.50;57.30;;;;;;6219740;28;20542;-79
2022/09/25 11:06:04;;;;;;;6.72;2.83;;;20.40;57.00;;;;;;6216067;28;20034;-80
2022/09/25 11:09:13;;;;;;;7.45;2.90;;;20.40;57.20;;;;;;6217411;28;20414;-79
2022/09/25 11:12:24;;;;;;;5.28;2.47;;;20.40;57.20;;;;;;6219136;28;20026;-79
2022/09/25 11:15:26;;;;;;;4.35;1.52;;;20.40;57.20;;;;;;6217535;28;20451;-79
2022/09/25 11:18:49;;;;;;;5.32;2.40;;;20.40;57.40;;;;;;6218229;28;20055;-78
2022/09/25 11:22:32;;;;;;;4.55;2.08;;;20.40;58.20;;;;;;6204694;28;20052;-77
2022/09/25 11:25:55;;;;;;;4.03;1.90;;;20.40;57.50;;;;;;6212314;28;20332;-78
2022/09/25 11:29:08;;;;;;;3.83;1.70;;;20.40;57.60;;;;;;6199329;28;20401;-79
2022/09/25 11:32:39;;;;;;;5.80;1.88;;;20.40;57.60;;;;;;6219421;28;20401;-78
2022/09/25 11:36:01;;;;;;;8.98;2.63;;;20.40;57.70;;;;;;6218152;28;20596;-80
2022/09/25 11:42:43;;;;;;;9.23;3.10;;;20.40;57.80;;;;;;6206544;28;20057;-79
2022/09/25 11:45:52;;;;;;;4.40;2.15;;;20.40;57.90;;;;;;6214505;28;20037;-78
2022/09/25 11:49:15;;;;;;;5.30;2.55;;;20.40;57.80;;;;;;6218388;28;20018;-79
2022/09/25 11:52:52;;;;;;;4.75;1.90;;;20.40;57.90;;;;;;6217078;28;20470;-78
2022/09/25 11:56:02;;;;;;;4.95;2.30;;;20.40;58.00;;;;;;6185852;28;20130;-78
2022/09/25 11:59:21;;;;;;;9.57;2.70;;;20.50;58.20;;;;;;6218005;28;20039;-78
2022/09/25 12:02:51;;;;;;;5.20;2.47;;;20.40;58.00;;;;;;6217610;28;20087;-77
2022/09/25 12:06:07;;;;;;;7.18;2.17;;;20.40;58.00;;;;;;6187131;28;20042;-78
2022/09/25 12:09:26;;;;;;;5.43;2.47;;;20.40;58.00;;;;;;6217417;28;20492;-79
2022/09/25 12:12:44;;;;;;;5.05;2.10;;;20.40;58.00;;;;;;6217673;28;20105;-79
2022/09/25 12:16:11;;;;;;;4.68;2.20;;;20.50;58.10;;;;;;6216106;28;20398;-79
2022/09/25 12:19:22;;;;;;;6.65;2.30;;;20.40;58.00;;;;;;6195471;28;20397;-78
2022/09/25 12:22:42;;;;;;;4.88;2.30;;;20.40;58.10;;;;;;6216826;28;20022;-79
2022/09/25 12:26:14;;;;;;;4.95;2.30;;;20.40;58.00;;;;;;6216559;28;20060;-77
2022/09/25 12:29:34;;;;;;;7.78;2.50;;;20.40;58.00;;;;;;6215984;28;20072;-79
2022/09/25 12:32:53;;;;;;;6.43;2.22;;;20.40;58.00;;;;;;6213377;28;20068;-78
2022/09/25 12:36:09;;;;;;;4.35;2.17;;;20.40;58.00;;;;;;6210446;28;20026;-80
2022/09/25 12:39:12;;;;;;;;;;;20.40;58.00;;;;;;6211230;28;20057;-77
2022/09/25 12:42:27;;;;;;;4.97;2.47;;;20.40;58.00;;;;;;6217140;28;19923;-78
2022/09/25 12:45:55;;;;;;;4.43;2.35;;;20.40;58.00;;;;;;6211418;28;20128;-77
2022/09/25 12:49:16;;;;;;;4.38;2.33;;;20.40;58.10;;;;;;6311547;27;20384;-73
2022/09/25 12:52:28;;;;;;;7.93;2.30;;;20.40;58.00;;;;;;6309372;28;20031;-73
2022/09/25 12:55:37;;;;;;;5.53;2.25;;;20.40;58.00;;;;;;6311539;28;20027;-73
2022/09/25 12:58:44;;;;;;;5.00;2.38;;;20.40;58.10;;;;;;6313402;28;20177;-73
2022/09/25 13:02:13;;;;;;;5.75;2.50;;;20.40;58.00;;;;;;6312984;28;20436;-73
2022/09/25 13:06:00;;;;;;;5.05;1.95;;;20.40;58.10;;;;;;6312330;28;20020;-73
2022/09/25 13:09:17;;;;;;;5.85;2.15;;;20.40;58.10;;;;;;6302609;28;20036;-73
2022/09/25 13:12:18;;;;;;;5.15;2.30;;;20.40;58.00;;;;;;6311731;28;20021;-73
2022/09/25 13:15:41;;;;;;;4.00;1.90;;;20.40;58.10;;;;;;6311584;28;20520;-73
2022/09/25 13:18:50;;;;;;;4.20;2.00;;;20.40;58.10;;;;;;6310815;28;20027;-73
2022/09/25 13:22:02;;;;;;;4.43;2.10;;;20.40;58.20;;;;;;6311515;28;20116;-73
2022/09/25 13:25:14;;;;;;;3.83;2.03;;;20.40;58.00;;;;;;6309160;28;20016;-73
2022/09/25 13:28:25;;;;;;;6.75;2.40;;;20.40;58.00;;;;;;6323454;28;20027;-73
2022/09/25 13:31:29;;;;;;;6.18;2.00;;;20.50;58.00;;;;;;6334879;28;20100;-73
2022/09/25 13:34:36;;;;;;;10.43;2.75;;;20.50;58.10;;;;;;6312281;28;20020;-74
2022/09/25 13:37:38;;;;;;;5.88;2.30;;;20.50;58.00;;;;;;6312135;28;20397;-73
2022/09/25 13:40:41;;;;;;;4.15;2.00;;;20.50;58.10;;;;;;6312663;28;20082;-73
2022/09/25 13:43:43;;;;;;;4.20;2.05;;;20.50;58.20;;;;;;6311172;28;20024;-74
2022/09/25 13:46:43;;;;;;;4.85;2.15;;;20.50;58.20;;;;;;6291924;28;20044;-73
2022/09/25 13:50:09;;;;;;;10.23;2.05;;;20.50;58.20;;;;;;6311756;28;20032;-73
2022/09/25 13:53:21;;;;;;;8.25;2.08;;;20.50;58.20;;;;;;6311142;28;20024;-73
2022/09/25 13:56:39;;;;;;;12.50;2.20;;;20.50;58.30;;;;;;6312392;28;20477;-73
2022/09/25 13:59:41;;;;;;;4.88;1.83;;;20.50;58.20;;;;;;6300409;28;20024;-74
2022/09/25 14:02:45;;;;;;;2.80;1.73;;;20.50;58.30;;;;;;6303653;28;20549;-73
2022/09/25 14:05:46;;;;;;;5.40;2.25;;;20.50;58.30;;;;;;6320500;28;20036;-74
2022/09/25 14:08:48;;;;;;;5.22;2.30;;;20.50;58.40;;;;;;6302035;28;20060;-72
2022/09/25 14:12:06;;;;;;;8.13;2.22;;;20.50;58.40;;;;;;6295030;28;20028;-73
2022/09/25 14:15:37;;;;;;;8.18;1.75;;;20.50;58.50;;;;;;6293829;28;20027;-73
2022/09/25 14:18:46;;;;;;;5.75;1.75;;;20.50;58.40;;;;;;6291790;28;20606;-73
2022/09/25 14:21:48;;;;;;;4.63;2.35;;;20.50;58.60;;;;;;6294793;28;20040;-73
2022/09/25 14:24:49;;;;;;;8.20;2.05;;;20.50;58.30;;;;;;6294320;28;20558;-73
2022/09/25 14:27:51;;;;;;;7.53;2.00;;;20.50;58.20;;;;;;6290245;28;20098;-73
2022/09/25 14:31:13;;;;;;;7.35;2.22;;;20.50;58.20;;;;;;6294864;28;20008;-73
2022/09/25 14:34:33;;;;;;;6.25;1.90;;;20.50;58.30;;;;;;6285513;28;20020;-72
2022/09/25 14:38:08;;;;;;;7.20;2.38;;;20.50;58.20;;;;;;6294085;28;20036;-72
2022/09/25 14:41:28;;;;;;;6.45;2.30;;;20.50;58.20;;;;;;6292631;28;20028;-73
2022/09/25 14:44:38;;;;;;;12.02;2.55;;;20.50;58.20;;;;;;6293973;28;20021;-73
2022/09/25 14:47:43;;;;;;;15.68;3.38;;;20.50;58.40;;;;;;6293175;28;20051;-70
2022/09/25 14:50:48;;;;;;;9.43;3.03;;;20.50;58.40;;;;;;6293233;28;20047;-70
2022/09/25 14:53:52;;;;;;;;;;;20.50;58.50;;;;;;6292001;28;20021;-73
2022/09/25 14:56:56;;;;;;;6.75;2.28;;;20.50;58.30;;;;;;6293043;28;19912;-69
2022/09/25 15:00:02;;;;;;;7.28;2.55;;;20.50;58.40;;;;;;6292875;28;20031;-70
2022/09/25 15:03:10;;;;;;;5.90;2.10;;;20.50;58.40;;;;;;6292841;28;20107;-70
2022/09/25 15:06:11;;;;;;;8.05;2.42;;;20.50;58.40;;;;;;6292804;28;20029;-71
2022/09/25 15:09:59;;;;;;;6.25;2.65;;;20.50;57.80;;;;;;6290823;28;20098;-71
2022/09/25 15:13:12;;;;;;;12.57;2.90;;;20.50;58.30;;;;;;6268822;28;20021;-72
2022/09/25 15:19:44;;;;;;;9.00;2.88;;;20.50;57.80;;;;;;6291863;28;20028;-70
2022/09/25 15:22:52;;;;;;;6.78;2.42;;;20.50;57.60;;;;;;6290965;28;20025;-71
2022/09/25 15:25:55;;;;;;;4.65;2.72;;;20.50;57.80;;;;;;6292101;28;20493;-72
2022/09/25 15:28:56;;;;;;;15.48;3.92;;;20.50;57.80;;;;;;6291290;28;20054;-71
2022/09/25 15:31:57;;;;;;;6.28;3.47;;;20.50;57.40;;;;;;6293031;28;20025;-71
2022/09/25 15:35:10;;;;;;;6.20;3.42;;;20.50;57.50;;;;;;6292920;28;20021;-69
2022/09/25 15:38:12;;;;;;;7.53;3.13;;;20.50;57.60;;;;;;6292188;28;20029;-71
2022/09/25 15:41:14;;;;;;;5.35;3.65;;;20.50;57.50;;;;;;6292365;28;20024;-71
2022/09/25 15:44:24;;;;;;;9.38;3.97;;;20.50;57.70;;;;;;6290270;28;20027;-71
2022/09/25 15:47:34;;;;;;;6.15;3.65;;;20.40;57.60;;;;;;6285221;28;20626;-71
2022/09/25 15:50:35;;;;;;;8.38;3.95;;;20.40;57.50;;;;;;6292099;28;20477;-70
2022/09/25 15:53:42;;;;;;;7.30;4.13;;;20.40;57.60;;;;;;6291879;28;20047;-71
2022/09/25 15:56:52;;;;;;;7.53;3.88;;;20.40;57.50;;;;;;6279252;28;20169;-71
2022/09/25 16:06:42;;;;;;;7.70;4.20;;;20.40;57.60;;;;;;6293785;28;20020;-71
2022/09/25 16:09:46;;;;;;;9.75;4.65;;;20.40;57.60;;;;;;6292286;28;20519;-71
2022/09/25 16:12:48;;;;;;;6.45;4.00;;;20.40;57.70;;;;;;6292102;28;20115;-72
2022/09/25 16:15:51;;;;;;;7.82;4.20;;;20.40;57.50;;;;;;6291588;28;20017;-69
2022/09/25 16:18:54;;;;;;;9.38;4.43;;;20.40;57.30;;;;;;6291121;28;20033;-68
2022/09/25 16:21:59;;;;;;;9.80;3.83;;;20.40;57.40;;;;;;6292495;28;20024;-68
2022/09/25 16:25:00;;;;;;;8.93;4.50;;;20.40;57.40;;;;;;6291959;28;20028;-68
2022/09/25 16:28:07;;;;;;;6.63;3.90;;;20.40;57.50;;;;;;6292823;28;20033;-67
2022/09/25 16:31:09;;;;;;;8.05;3.92;;;20.40;57.50;;;;;;6293052;28;20067;-67
2022/09/25 16:34:37;;;;;;;8.27;4.05;;;20.50;57.60;;;;;;6291828;28;20025;-67
2022/09/25 16:37:38;;;;;;;11.35;4.20;;;20.40;57.60;;;;;;6292659;28;20040;-67
2022/09/25 16:40:39;;;;;;;6.88;3.58;;;20.40;57.50;;;;;;6292280;28;20024;-67
2022/09/25 16:43:39;;;;;;;7.30;3.55;;;20.40;57.60;;;;;;6291548;28;20025;-67
2022/09/25 16:46:42;;;;;;;7.53;3.70;;;20.40;57.40;;;;;;6292984;28;20128;-67
2022/09/25 16:49:43;;;;;;;8.38;3.83;;;20.40;57.60;;;;;;6292746;28;20103;-72
2022/09/25 16:52:45;;;;;;;4.90;3.55;;;20.40;57.50;;;;;;6292402;28;20474;-70